createdAt,value
2023-03-27T00:00:13.216Z,97051.84
2023-03-27T00:02:41.989Z,97060.78
2023-03-27T00:05:10.411Z,97067.75
2023-03-27T00:07:41.357Z,97057.03
2023-03-27T00:10:12.231Z,97066.16
2023-03-27T00:12:40.273Z,97077.66
2023-03-27T00:15:09.010Z,97087.78
2023-03-27T00:17:37.549Z,97084.03
2023-03-27T00:20:06.718Z,97099.28
2023-03-27T00:22:34.668Z,97097.13
2023-03-27T00:25:02.677Z,97105.75
2023-03-27T00:27:32.340Z,97113.13
2023-03-27T00:30:00.235Z,97114.06
2023-03-27T00:32:28.160Z,97117.75
2023-03-27T00:34:56.167Z,97121.91
2023-03-27T00:37:24.099Z,97127.44
2023-03-27T00:39:52.041Z,97124.81
2023-03-27T00:42:22.865Z,97129.47
2023-03-27T00:44:52.670Z,97127.69
2023-03-27T00:47:23.145Z,97133.81
2023-03-27T00:49:51.411Z,97139.44
2023-03-27T00:52:21.364Z,97138.00
2023-03-27T00:54:49.356Z,97143.78
2023-03-27T00:57:19.118Z,97144.09
2023-03-27T00:59:47.367Z,97145.28
2023-03-27T01:02:16.772Z,97149.06
2023-03-27T01:04:45.058Z,97156.03
2023-03-27T01:07:12.958Z,97156.53
2023-03-27T01:09:40.901Z,97163.09
2023-03-27T01:12:12.414Z,97157.56
2023-03-27T01:14:43.817Z,97169.53
2023-03-27T01:17:22.568Z,97171.09
2023-03-27T01:20:09.893Z,97174.66
2023-03-27T01:23:10.399Z,97176.38
2023-03-27T01:25:45.799Z,97189.63
2023-03-27T01:28:18.041Z,97197.53
2023-03-27T01:30:48.968Z,97193.84
2023-03-27T01:33:32.825Z,97202.16
2023-03-27T01:36:25.994Z,97202.34
2023-03-27T01:39:23.023Z,97215.53
2023-03-27T01:41:53.340Z,97225.00
2023-03-27T01:44:23.541Z,97212.19
2023-03-27T01:46:52.680Z,97221.28
2023-03-27T01:49:22.145Z,97234.38
2023-03-27T01:51:51.439Z,97236.31
2023-03-27T01:54:21.770Z,97247.88
2023-03-27T01:56:53.851Z,97239.91
2023-03-27T01:59:23.217Z,97256.25
2023-03-27T02:01:57.243Z,97257.81
2023-03-27T02:04:27.290Z,97267.44
2023-03-27T02:06:57.229Z,97272.06
2023-03-27T02:09:28.452Z,97271.84
2023-03-27T02:11:59.305Z,97270.91
2023-03-27T02:14:29.270Z,97277.84
2023-03-27T02:16:59.238Z,97275.22
2023-03-27T02:19:30.115Z,97278.03
2023-03-27T02:21:58.988Z,97274.47
2023-03-27T02:24:28.959Z,97278.88
2023-03-27T02:26:59.612Z,97279.03
2023-03-27T02:29:39.349Z,97285.63
2023-03-27T02:32:12.747Z,97288.72
2023-03-27T02:35:00.012Z,97298.81
2023-03-27T02:37:32.580Z,97304.09
2023-03-27T02:40:07.754Z,97317.41
2023-03-27T02:42:38.692Z,97316.41
2023-03-27T02:45:10.284Z,97321.63
2023-03-27T02:47:39.216Z,97335.19
2023-03-27T02:50:10.812Z,97328.66
2023-03-27T02:52:40.482Z,97328.28
2023-03-27T02:55:12.726Z,97334.16
2023-03-27T02:57:40.705Z,97340.00
2023-03-27T03:00:23.669Z,97347.13
2023-03-27T03:02:51.692Z,97349.03
2023-03-27T03:05:22.180Z,97350.13
2023-03-27T03:07:50.141Z,97358.19
2023-03-27T03:10:19.410Z,97360.44
2023-03-27T03:12:47.604Z,97367.47
2023-03-27T03:15:15.609Z,97365.75
2023-03-27T03:17:43.597Z,97371.28
2023-03-27T03:20:13.094Z,97367.66
2023-03-27T03:22:42.173Z,97372.50
2023-03-27T03:25:10.852Z,97376.28
2023-03-27T03:27:41.374Z,97381.78
2023-03-27T03:30:10.627Z,97378.13
2023-03-27T03:32:44.818Z,97390.03
2023-03-27T03:35:13.792Z,97399.41
2023-03-27T03:37:41.994Z,97389.16
2023-03-27T03:40:12.042Z,97396.91
2023-03-27T03:42:46.630Z,97402.75
2023-03-27T03:45:14.675Z,97411.59
2023-03-27T03:47:42.924Z,97424.19
2023-03-27T03:50:11.892Z,97415.34
2023-03-27T03:52:39.837Z,97415.28
2023-03-27T03:55:09.249Z,97417.97
2023-03-27T03:57:37.572Z,97417.13
2023-03-27T04:00:08.601Z,97423.19
2023-03-27T04:02:37.630Z,97428.25
2023-03-27T04:05:11.811Z,97423.59
2023-03-27T04:07:40.307Z,97429.41
2023-03-27T04:10:09.776Z,97434.06
2023-03-27T04:12:37.668Z,97440.41
2023-03-27T04:15:09.204Z,97445.84
2023-03-27T04:17:38.411Z,97450.94
2023-03-27T04:20:07.779Z,97449.16
2023-03-27T04:22:38.427Z,97454.75
2023-03-27T04:25:07.840Z,97452.41
2023-03-27T04:27:35.917Z,97460.31
2023-03-27T04:30:04.003Z,97469.41
2023-03-27T04:32:33.644Z,97476.97
2023-03-27T04:35:01.650Z,97476.38
2023-03-27T04:37:30.489Z,97485.44
2023-03-27T04:39:58.614Z,97493.69
2023-03-27T04:42:27.103Z,97495.41
2023-03-27T04:44:55.028Z,97504.38
2023-03-27T04:47:22.979Z,97506.50
2023-03-27T04:49:52.309Z,97506.56
2023-03-27T04:52:20.296Z,97505.84
2023-03-27T04:54:48.643Z,97507.91
2023-03-27T04:57:19.369Z,97512.91
2023-03-27T04:59:50.086Z,97508.06
2023-03-27T05:02:18.057Z,97517.97
2023-03-27T05:04:46.040Z,97504.28
2023-03-27T05:07:15.564Z,97512.44
2023-03-27T05:09:43.690Z,97509.31
2023-03-27T05:12:11.993Z,97516.25
2023-03-27T05:14:39.854Z,97527.38
2023-03-27T05:17:09.380Z,97522.88
2023-03-27T05:19:37.437Z,97533.28
2023-03-27T05:22:05.363Z,97541.25
2023-03-27T05:24:34.768Z,97534.69
2023-03-27T05:27:03.106Z,97544.19
2023-03-27T05:29:47.057Z,97550.97
2023-03-27T05:32:15.925Z,97552.50
2023-03-27T05:34:44.167Z,97559.28
2023-03-27T05:37:12.202Z,97555.38
2023-03-27T05:39:41.604Z,97556.16
2023-03-27T05:42:09.516Z,97561.56
2023-03-27T05:44:37.498Z,97571.19
2023-03-27T05:47:05.532Z,97572.88
2023-03-27T05:49:34.453Z,97567.56
2023-03-27T05:52:02.525Z,97573.31
2023-03-27T05:54:31.067Z,97577.47
2023-03-27T05:57:00.902Z,97581.34
2023-03-27T05:59:28.901Z,97581.22
2023-03-27T06:01:58.489Z,97581.22
2023-03-27T06:04:28.753Z,97588.78
2023-03-27T06:06:57.764Z,97584.66
2023-03-27T06:09:26.582Z,97590.97
2023-03-27T06:11:54.508Z,97598.53
2023-03-27T06:14:24.061Z,97602.88
2023-03-27T06:16:52.748Z,97600.38
2023-03-27T06:19:21.073Z,97606.00
2023-03-27T06:21:49.087Z,97614.22
2023-03-27T06:24:17.909Z,97611.16
2023-03-27T06:26:45.792Z,97618.91
2023-03-27T06:29:13.747Z,97624.34
2023-03-27T06:31:44.177Z,97633.06
2023-03-27T06:34:15.128Z,97633.31
2023-03-27T06:36:43.109Z,97628.34
2023-03-27T06:39:11.143Z,97629.31
2023-03-27T06:41:39.059Z,97631.78
2023-03-27T06:44:07.072Z,97631.88
2023-03-27T06:46:44.658Z,97643.00
2023-03-27T06:49:15.845Z,97649.91
2023-03-27T06:51:44.087Z,97649.47
2023-03-27T06:54:14.624Z,97643.66
2023-03-27T06:56:44.341Z,97654.31
2023-03-27T06:59:12.362Z,97652.22
2023-03-27T07:01:40.596Z,97654.94
2023-03-27T07:04:08.706Z,97659.75
2023-03-27T07:06:39.637Z,97669.56
2023-03-27T07:09:08.351Z,97660.97
2023-03-27T07:11:36.407Z,97666.63
2023-03-27T07:14:04.380Z,97673.94
2023-03-27T07:16:39.052Z,97676.28
2023-03-27T07:19:11.687Z,97686.00
2023-03-27T07:21:41.623Z,97682.56
2023-03-27T07:24:09.943Z,97669.81
2023-03-27T07:26:38.321Z,97674.97
2023-03-27T07:29:10.650Z,97681.44
2023-03-27T07:31:55.880Z,97679.66
2023-03-27T07:34:25.060Z,97681.03
2023-03-27T07:36:54.605Z,97684.28
2023-03-27T07:39:22.487Z,97681.97
2023-03-27T07:41:50.428Z,97677.78
2023-03-27T07:44:18.675Z,97686.63
2023-03-27T07:46:47.333Z,97672.22
2023-03-27T07:49:15.366Z,97685.78
2023-03-27T07:51:43.298Z,97683.53
2023-03-27T07:54:13.425Z,97682.72
2023-03-27T07:56:41.505Z,97687.09
2023-03-27T07:59:09.630Z,97689.00
2023-03-27T08:01:37.778Z,97677.22
2023-03-27T08:04:05.958Z,97678.38
2023-03-27T08:06:34.502Z,97685.44
2023-03-27T08:09:03.053Z,97684.81
2023-03-27T08:11:32.887Z,97684.69
2023-03-27T08:14:00.788Z,97675.72
2023-03-27T08:16:30.140Z,97692.47
2023-03-27T08:18:58.692Z,97690.44
2023-03-27T08:21:26.662Z,97697.28
2023-03-27T08:23:57.289Z,97693.13
2023-03-27T08:26:26.531Z,97690.59
2023-03-27T08:28:56.304Z,97692.06
2023-03-27T08:31:25.776Z,97693.78
2023-03-27T08:33:54.182Z,97700.28
2023-03-27T08:36:23.143Z,97694.78
2023-03-27T08:38:51.553Z,97702.13
2023-03-27T08:41:31.214Z,97697.03
2023-03-27T08:44:03.636Z,97706.91
2023-03-27T08:46:33.869Z,97716.00
2023-03-27T08:49:05.507Z,97712.34
2023-03-27T08:51:35.125Z,97710.31
2023-03-27T08:54:06.184Z,97723.34
2023-03-27T08:56:35.093Z,97730.19
2023-03-27T08:59:04.449Z,97742.44
2023-03-27T09:01:35.497Z,97738.91
2023-03-27T09:04:07.381Z,97739.53
2023-03-27T09:06:39.642Z,97723.84
2023-03-27T09:09:10.986Z,97737.63
2023-03-27T09:11:47.752Z,97747.75
2023-03-27T09:14:29.205Z,97748.38
2023-03-27T09:16:57.100Z,97740.41
2023-03-27T09:19:31.617Z,97725.72
2023-03-27T09:22:02.720Z,97730.44
2023-03-27T09:24:31.558Z,97732.41
2023-03-27T09:27:07.031Z,97719.56
2023-03-27T09:29:38.078Z,97715.59
2023-03-27T09:32:06.066Z,97721.97
2023-03-27T09:34:34.060Z,97730.88
2023-03-27T09:37:02.518Z,97730.75
2023-03-27T09:39:32.659Z,97738.94
2023-03-27T09:42:06.880Z,97747.59
2023-03-27T09:44:38.374Z,97752.13
2023-03-27T09:47:08.326Z,97750.50
2023-03-27T09:49:36.900Z,97749.16
2023-03-27T09:52:05.970Z,97740.38
2023-03-27T09:54:34.548Z,97742.97
2023-03-27T09:57:05.552Z,97749.25
2023-03-27T09:59:34.625Z,97728.81
2023-03-27T10:02:17.910Z,97723.81
2023-03-27T10:04:58.292Z,97729.03
2023-03-27T10:07:26.843Z,97727.22
2023-03-27T10:10:05.516Z,97727.97
2023-03-27T10:12:34.565Z,97733.78
2023-03-27T10:15:02.738Z,97738.88
2023-03-27T10:17:34.438Z,97738.31
2023-03-27T10:20:05.782Z,97746.97
2023-03-27T10:22:35.453Z,97736.91
2023-03-27T10:25:06.053Z,97736.91
2023-03-27T10:27:35.916Z,97743.56
2023-03-27T10:30:04.024Z,97739.91
2023-03-27T10:32:45.106Z,97753.13
2023-03-27T10:35:25.290Z,97744.38
2023-03-27T10:38:24.936Z,97743.53
2023-03-27T10:40:55.423Z,97745.91
2023-03-27T10:43:28.768Z,97755.50
2023-03-27T10:45:59.967Z,97761.03
2023-03-27T10:48:36.070Z,97772.56
2023-03-27T10:51:06.701Z,97795.41
2023-03-27T10:53:38.911Z,97781.38
2023-03-27T10:56:10.995Z,97784.66
2023-03-27T10:58:42.091Z,97788.41
2023-03-27T11:01:12.655Z,97798.25
2023-03-27T11:03:46.863Z,97789.88
2023-03-27T11:06:16.482Z,97776.59
2023-03-27T11:08:53.275Z,97774.81
2023-03-27T11:11:24.456Z,97774.75
2023-03-27T11:13:53.405Z,97767.81
2023-03-27T11:16:23.492Z,97767.28
2023-03-27T11:18:54.350Z,97779.78
2023-03-27T11:21:26.782Z,97772.56
2023-03-27T11:23:57.539Z,97779.41
2023-03-27T11:26:27.426Z,97776.63
2023-03-27T11:29:01.058Z,97778.72
2023-03-27T11:31:41.239Z,97802.69
2023-03-27T11:34:15.443Z,97777.59
2023-03-27T11:36:59.685Z,97796.81
2023-03-27T11:39:29.964Z,97793.72
2023-03-27T11:41:59.189Z,97803.22
2023-03-27T11:44:30.358Z,97805.31
2023-03-27T11:47:19.878Z,97806.66
2023-03-27T11:49:57.149Z,97812.91
2023-03-27T11:52:31.586Z,97806.97
2023-03-27T11:55:06.863Z,97816.53
2023-03-27T11:57:39.638Z,97808.81
2023-03-27T12:00:31.510Z,97810.03
2023-03-27T12:03:32.521Z,97796.47
2023-03-27T12:06:07.872Z,97803.00
2023-03-27T12:08:54.773Z,97814.53
2023-03-27T12:11:22.786Z,97850.97
2023-03-27T12:14:40.503Z,97860.47
2023-03-27T12:17:25.196Z,97888.03
2023-03-27T12:20:28.506Z,97893.91
2023-03-27T12:22:59.728Z,97895.94
2023-03-27T12:25:36.435Z,97896.75
2023-03-27T12:28:08.962Z,97893.38
2023-03-27T12:30:53.509Z,97899.09
2023-03-27T12:33:37.551Z,97890.34
2023-03-27T12:36:07.336Z,97895.72
2023-03-27T12:38:38.834Z,97894.00
2023-03-27T12:41:13.856Z,97878.31
2023-03-27T12:43:51.627Z,97878.66
2023-03-27T12:46:31.894Z,97866.28
2023-03-27T12:49:02.618Z,97855.88
2023-03-27T12:51:38.853Z,97854.63
2023-03-27T12:54:24.413Z,97848.53
2023-03-27T12:56:52.884Z,97845.34
2023-03-27T12:59:22.247Z,97851.69
2023-03-27T13:02:27.173Z,97841.56
2023-03-27T13:05:26.411Z,97855.41
2023-03-27T13:08:02.468Z,97883.66
2023-03-27T13:10:41.589Z,97904.63
2023-03-27T13:13:44.393Z,97920.59
2023-03-27T13:16:24.728Z,97918.38
2023-03-27T13:19:27.061Z,97919.25
2023-03-27T13:22:03.961Z,97921.31
2023-03-27T13:24:44.530Z,97918.97
2023-03-27T13:27:27.933Z,97910.41
2023-03-27T13:29:58.866Z,97887.28
2023-03-27T13:32:32.100Z,97880.78
2023-03-27T13:35:12.479Z,97888.84
2023-03-27T13:37:59.443Z,97874.97
2023-03-27T13:40:31.721Z,97872.25
2023-03-27T13:43:08.310Z,97871.59
2023-03-27T13:45:40.247Z,97860.47
2023-03-27T13:48:41.130Z,97860.22
2023-03-27T13:51:21.115Z,97891.81
2023-03-27T13:53:55.540Z,97892.97
2023-03-27T13:56:39.252Z,97924.72
2023-03-27T13:59:39.465Z,97928.41
2023-03-27T14:02:33.232Z,97926.69
2023-03-27T14:05:28.666Z,97962.63
2023-03-27T14:08:04.903Z,97956.22
2023-03-27T14:10:40.465Z,97967.84
2023-03-27T14:13:15.712Z,97955.97
2023-03-27T14:16:02.208Z,97971.19
2023-03-27T14:18:56.915Z,97956.03
2023-03-27T14:21:37.922Z,97976.38
2023-03-27T14:24:09.438Z,97977.03
2023-03-27T14:26:37.857Z,97963.78
2023-03-27T14:29:05.793Z,97957.78
2023-03-27T14:31:36.813Z,97954.03
2023-03-27T14:34:05.717Z,97948.50
2023-03-27T14:36:34.723Z,97942.94
2023-03-27T14:39:03.233Z,97943.94
2023-03-27T14:41:32.192Z,97945.41
2023-03-27T14:44:03.458Z,97958.81
2023-03-27T14:46:32.576Z,97942.78
2023-03-27T14:49:02.232Z,97940.75
2023-03-27T14:51:41.877Z,97932.28
2023-03-27T14:54:13.086Z,97929.19
2023-03-27T14:56:45.827Z,97923.34
2023-03-27T14:59:15.136Z,97922.50
2023-03-27T15:01:43.143Z,97909.66
2023-03-27T15:04:13.172Z,97900.63
2023-03-27T15:06:41.675Z,97901.41
2023-03-27T15:09:14.599Z,97905.16
2023-03-27T15:11:44.389Z,97906.25
2023-03-27T15:14:16.767Z,97909.22
2023-03-27T15:16:44.700Z,97907.69
2023-03-27T15:19:15.375Z,97901.25
2023-03-27T15:21:49.386Z,97910.34
2023-03-27T15:24:19.584Z,97915.34
2023-03-27T15:26:47.885Z,97911.75
2023-03-27T15:29:18.645Z,97913.50
2023-03-27T15:31:47.504Z,97917.97
2023-03-27T15:34:21.410Z,97917.38
2023-03-27T15:36:50.367Z,97909.47
2023-03-27T15:39:21.152Z,97904.31
2023-03-27T15:41:51.773Z,97911.69
2023-03-27T15:44:21.317Z,97910.00
2023-03-27T15:46:57.135Z,97920.13
2023-03-27T15:49:34.271Z,97929.69
2023-03-27T15:52:02.524Z,97925.25
2023-03-27T15:54:32.489Z,97921.88
2023-03-27T15:57:10.255Z,97925.19
2023-03-27T15:59:52.149Z,97929.56
2023-03-27T16:02:22.757Z,97932.44
2023-03-27T16:04:54.384Z,97931.81
2023-03-27T16:07:24.237Z,97931.81
2023-03-27T16:09:53.496Z,97937.69
2023-03-27T16:12:22.517Z,97943.22
2023-03-27T16:14:58.176Z,97947.09
2023-03-27T16:17:34.261Z,97947.00
2023-03-27T16:20:08.376Z,97940.81
2023-03-27T16:22:38.483Z,97941.13
2023-03-27T16:25:08.855Z,97943.38
2023-03-27T16:27:38.222Z,97943.28
2023-03-27T16:30:08.191Z,97929.06
2023-03-27T16:32:36.935Z,97951.09
2023-03-27T16:35:09.939Z,97947.88
2023-03-27T16:37:42.937Z,97949.66
2023-03-27T16:40:16.709Z,97949.16
2023-03-27T16:42:45.374Z,97949.94
2023-03-27T16:45:14.271Z,97948.25
2023-03-27T16:47:42.704Z,97956.59
2023-03-27T16:50:15.825Z,97960.16
2023-03-27T16:52:47.536Z,97961.75
2023-03-27T16:55:19.028Z,97966.69
2023-03-27T16:57:47.202Z,97969.03
2023-03-27T17:00:27.597Z,97972.63
2023-03-27T17:02:56.566Z,97974.38
2023-03-27T17:05:33.959Z,97979.28
2023-03-27T17:08:02.805Z,97988.97
2023-03-27T17:10:40.063Z,98001.69
2023-03-27T17:16:33.633Z,98007.41
2023-03-27T17:19:08.625Z,98013.78
2023-03-27T17:21:38.533Z,98010.25
2023-03-27T17:24:06.682Z,98012.66
2023-03-27T17:26:35.416Z,98027.38
2023-03-27T17:29:05.354Z,98037.69
2023-03-27T17:31:33.474Z,98047.97
2023-03-27T17:34:01.541Z,98043.56
2023-03-27T17:36:40.101Z,98049.50
2023-03-27T17:39:10.773Z,98060.81
2023-03-27T17:41:39.153Z,98044.91
2023-03-27T17:44:08.048Z,98055.75
2023-03-27T17:46:36.326Z,98063.38
2023-03-27T17:49:04.470Z,98067.19
2023-03-27T17:51:34.296Z,98066.66
2023-03-27T17:54:02.230Z,98057.06
2023-03-27T17:56:32.010Z,98064.63
2023-03-27T17:58:59.956Z,98071.22
2023-03-27T18:01:27.988Z,98077.72
2023-03-27T18:03:59.358Z,98083.25
2023-03-27T18:06:27.536Z,98086.94
2023-03-27T18:08:55.663Z,98082.81
2023-03-27T18:11:23.738Z,98091.06
2023-03-27T18:13:55.123Z,98094.56
2023-03-27T18:16:23.264Z,98096.84
2023-03-27T18:18:54.852Z,98107.25
2023-03-27T18:21:22.936Z,98103.34
2023-03-27T18:23:53.431Z,98110.44
2023-03-27T18:26:22.464Z,98111.16
2023-03-27T18:28:51.453Z,98112.22
2023-03-27T18:31:20.961Z,98113.50
2023-03-27T18:33:50.079Z,98128.03
2023-03-27T18:36:18.073Z,98128.88
2023-03-27T18:38:48.465Z,98129.19
2023-03-27T18:41:17.719Z,98136.78
2023-03-27T18:43:45.635Z,98138.75
2023-03-27T18:46:17.210Z,98143.69
2023-03-27T18:48:49.057Z,98151.44
2023-03-27T18:51:19.060Z,98144.97
2023-03-27T18:53:47.268Z,98151.78
2023-03-27T18:56:20.337Z,98147.44
2023-03-27T18:58:48.424Z,98164.28
2023-03-27T19:01:16.577Z,98162.22
2023-03-27T19:03:48.793Z,98168.81
2023-03-27T19:06:19.858Z,98158.78
2023-03-27T19:08:49.083Z,98169.53
2023-03-27T19:11:18.238Z,98166.63
2023-03-27T19:13:46.228Z,98169.78
2023-03-27T19:16:15.167Z,98169.53
2023-03-27T19:18:43.495Z,98178.41
2023-03-27T19:21:13.065Z,98179.00
2023-03-27T19:23:41.454Z,98183.91
2023-03-27T19:26:09.839Z,98185.97
2023-03-27T19:28:37.761Z,98193.44
2023-03-27T19:31:06.479Z,98200.22
2023-03-27T19:33:34.530Z,98205.38
2023-03-27T19:36:02.571Z,98193.50
2023-03-27T19:38:32.163Z,98200.97
2023-03-27T19:41:00.643Z,98208.63
2023-03-27T19:43:28.749Z,98203.97
2023-03-27T19:46:08.135Z,98211.06
2023-03-27T19:48:43.780Z,98210.72
2023-03-27T19:51:11.780Z,98209.69
2023-03-27T19:53:41.903Z,98214.66
2023-03-27T19:56:10.001Z,98214.25
2023-03-27T19:58:37.977Z,98207.75
2023-03-27T20:01:07.045Z,98210.69
2023-03-27T20:03:38.322Z,98205.72
2023-03-27T20:06:11.965Z,98213.53
2023-03-27T20:08:43.731Z,98210.16
2023-03-27T20:11:12.110Z,98221.22
2023-03-27T20:13:52.916Z,98224.34
2023-03-27T20:16:21.790Z,98225.72
2023-03-27T20:18:55.150Z,98229.53
2023-03-27T20:21:24.683Z,98227.34
2023-03-27T20:23:55.527Z,98231.63
2023-03-27T20:26:24.221Z,98229.91
2023-03-27T20:28:52.233Z,98233.22
2023-03-27T20:31:20.458Z,98232.00
2023-03-27T20:33:48.793Z,98234.41
2023-03-27T20:36:19.779Z,98228.56
2023-03-27T20:38:47.731Z,98235.56
2023-03-27T20:41:17.357Z,98231.03
2023-03-27T20:43:47.364Z,98232.84
2023-03-27T20:46:15.282Z,98237.41
2023-03-27T20:48:54.058Z,98232.50
2023-03-27T20:51:25.130Z,98239.81
2023-03-27T20:53:56.463Z,98236.69
2023-03-27T20:56:27.579Z,98238.91
2023-03-27T20:58:56.224Z,98237.84
2023-03-27T21:01:28.348Z,98237.59
2023-03-27T21:04:05.074Z,98241.00
2023-03-27T21:06:37.679Z,98245.94
2023-03-27T21:09:10.753Z,98244.34
2023-03-27T21:11:45.766Z,98248.00
2023-03-27T21:14:22.815Z,98247.00
2023-03-27T21:16:51.162Z,98248.84
2023-03-27T21:19:19.465Z,98245.69
2023-03-27T21:21:47.678Z,98254.13
2023-03-27T21:24:16.032Z,98255.97
2023-03-27T21:26:45.675Z,98249.69
2023-03-27T21:29:15.308Z,98252.78
2023-03-27T21:31:43.792Z,98260.16
2023-03-27T21:34:11.890Z,98253.56
2023-03-27T21:36:39.950Z,98252.22
2023-03-27T21:39:08.914Z,98260.97
2023-03-27T21:41:37.237Z,98252.94
2023-03-27T21:44:07.272Z,98266.25
2023-03-27T21:46:35.496Z,98266.34
2023-03-27T21:49:03.680Z,98266.03
2023-03-27T21:51:32.013Z,98264.00
2023-03-27T21:54:00.169Z,98266.16
2023-03-27T21:56:28.320Z,98270.47
2023-03-27T21:58:57.629Z,98278.34
2023-03-27T22:01:27.278Z,98280.59
2023-03-27T22:03:59.496Z,98277.97
2023-03-27T22:06:28.918Z,98276.31
2023-03-27T22:08:57.348Z,98272.28
2023-03-27T22:11:25.563Z,98282.81
2023-03-27T22:13:54.808Z,98279.31
2023-03-27T22:16:23.122Z,98282.69
2023-03-27T22:18:52.740Z,98281.28
2023-03-27T22:21:22.139Z,98281.75
2023-03-27T22:23:51.014Z,98284.28
2023-03-27T22:26:19.238Z,98289.97
2023-03-27T22:28:47.909Z,98291.72
2023-03-27T22:31:16.153Z,98298.94
2023-03-27T22:33:44.124Z,98300.69
2023-03-27T22:36:13.666Z,98302.41
2023-03-27T22:38:42.067Z,98307.25
2023-03-27T22:41:11.484Z,98306.25
2023-03-27T22:43:39.432Z,98302.94
2023-03-27T22:46:08.282Z,98316.16
2023-03-27T22:48:36.260Z,98317.59
2023-03-27T22:51:04.338Z,98314.69
2023-03-27T22:53:34.040Z,98317.56
2023-03-27T22:56:02.407Z,98320.75
2023-03-27T22:58:30.954Z,98332.06
2023-03-27T23:00:58.925Z,98318.22
2023-03-27T23:03:27.668Z,98330.44
2023-03-27T23:05:55.901Z,98321.13
2023-03-27T23:08:27.137Z,98329.91
2023-03-27T23:10:57.270Z,98333.75
2023-03-27T23:13:25.516Z,98335.38
2023-03-27T23:15:53.439Z,98342.91
2023-03-27T23:18:23.808Z,98345.78
2023-03-27T23:20:55.089Z,98339.88
2023-03-27T23:23:23.362Z,98342.38
2023-03-27T23:25:51.414Z,98346.84
2023-03-27T23:28:20.825Z,98354.22
2023-03-27T23:30:59.143Z,98347.28
2023-03-27T23:33:27.147Z,98347.72
2023-03-27T23:35:55.661Z,98352.03
2023-03-27T23:38:23.693Z,98354.03
2023-03-27T23:40:56.749Z,98355.03
2023-03-27T23:43:26.710Z,98355.94
2023-03-27T23:45:55.544Z,98360.44
2023-03-27T23:48:23.733Z,98370.88
2023-03-27T23:50:52.057Z,98371.13
2023-03-27T23:53:20.229Z,98368.41
2023-03-27T23:55:48.155Z,98367.75
2023-03-27T23:58:16.493Z,98370.56
